Terminal Aerodrome Forecast
Issued by NWS

Home | Current Version | Previous Version | Text Only | Print | Product List | Glossary On
Versions: 1 2 3 4 5 6 7 8 9 10 11 12 13 14 15 16 17 18 19 20 21 22 23 24 25 26
000
FTUS45 KGJT 230520
TAFEGE
TAF
KEGE 230520Z 2306/2406 VRB03KT P6SM FEW080 SCT100
     FM231500 24009KT P6SM VCSH SCT050 BKN100
     FM232000 24015KT P6SM VCTS SCT050CB BKN100
     FM240000 25012KT P6SM BKN100
      AMD LTD TO CLD VIS AND WIND TIL 231300=

USA.gov is the U.S. government's official web portal to all federal, state and local government web resources and services.